Aeroporto :
LOGIN :

Iscrizione | Disclaimer

   EN    FR    IT 

 










Sommario :    VFR   VFR Marginale   IFR   IFR Intensivo   IFR Molto Intensivo
Visibilità : 
Base nubi : 
>= 8 km
>= 3000ft
5 / 8 km
1000 / 3000 ft
1500m / 5 km
500 / 1000 ft
800 / 1500m
200 / 500 ft
< 800m
< 200 ft
Simboli :   Temporali  Nebbia  Neve Forte  Precipitazioni Forti  Vento > 20 kt
SIGMETs :   Varie  Temporali  Ghiacco  Turbolenza  Onda orograficha  Ceneri Vulcaniche






- Altitudine del aeroporto : 10 ft
- Codice IATA : AAL


EKYT - Aalborg

ULTIMO METAR :
  • 241220Z 24011KT 9999 BKN040 05/03 Q1009

METARs OBSOLETI :
  • 241150Z 24011KT 9999 BKN040 05/03 Q1010
  • 241120Z AUTO 24012KT 9999 FEW032/// SCT220/// 05/03 Q1010
  • 241050Z AUTO 23011KT 9999 FEW024/// BKN033/// 05/02 Q1010
  • 241020Z AUTO 24009KT 9999 FEW029/// 05/02 Q1010
  • 240950Z AUTO 24008KT 9999 FEW180/// 05/02 Q1011

TAF TAF EKYT
Valido dal 24 a 12 ore il 25 a 12 ore UTC


241114Z 2412/2512 23012KT 9999 FEW025
BECMG 2415/2418 17008KT
BECMG 2420/2422 12018KT 4000 -RADZ SCT006 BKN012
TEMPO 2423/2504 14020G30KT 1500 RASN BR BKN003
BECMG 2504/2506 19015KT 8000 -RADZ SCT012 BKN020
TEMPO 2506/2512 4000 RADZ BKN012 BKN020CB



MetMap, La meteo Aeronautica in un colpo d'occhio ! - Copyright ORBIFLY Dicembre 2007 - Disclaimer

ORBIFLY MET'MAP TEAM :

Programmazione e sviluppo : Alexandra Zaïnal
Concezione : Baudouin d'Aumeries
Aiuto per la programmazione : Marc-Olivier Méhu
Supporto tecnico e logistico : Manuel Goepfert
Aiuto per la traduzione : Arnaldo La Scala

Contatto : metmap@orbifly.com




FONTI E CREDITI :

   NOAA